Quick Links (Output Below):   Max & Min Temps   /   Climate Reports   /   Zone Forecasts
River Forecasts   /   Forestry Forecasts   /   Aviation Forecasts   /   Radars   /   Features

Terminal Aerodrome Forecast (Jonesboro)

Pick a Site:
Arkadelphia | El Dorado | Fayetteville | Fort Smith | Harrison | Highfill | Hot Springs | Jonesboro
Little Rock | Monticello | Mountain Home | Pine Bluff | Texarkana
 Forecast 

KJBR 061736Z 0618/0718 VRB03KT P6SM SCT250
     FM071500 23011KT P6SM SKC=


 Latest METARs (Observations) 
How to Decode METARs
20Z KJBR 061953Z AUTO 22005KT 10SM CLR 11/M06 A3032 RMK AO2 SLP267
         T01061056
         
19Z KJBR 061853Z AUTO 26005KT 10SM CLR 10/M04 A3034 RMK AO2 SLP274
         T01001044
         
18Z KJBR 061753Z AUTO VRB05KT 10SM CLR 10/M05 A3036 RMK AO2 SLP283
         T01001050 10100 21022 58007
         
17Z KJBR 061653Z AUTO 16003KT 10SM CLR 09/M03 A3038 RMK AO2 SLP288
         T00891033
         
16Z KJBR 061553Z AUTO 15004KT 10SM CLR 06/M01 A3039 RMK AO2 SLP291
         T00611011
         
15Z KJBR 061453Z AUTO 00000KT 10SM CLR 05/M01 A3039 RMK AO2 SLP290
         T00501006 51009
         
14Z KJBR 061353Z AUTO 00000KT 10SM CLR M01/M03 A3038 RMK AO2 SLP289
         T10111028
         
13Z KJBR 061253Z AUTO 00000KT 10SM CLR M01/M03 A3037 RMK AO2 SLP284
         T10111033
         
12Z KJBR 061153Z AUTO 00000KT 10SM CLR M02/M04 A3036 RMK AO2 SLP281
         T10171039 10011 21022 53002
         
11Z KJBR 061053Z AUTO 00000KT 10SM CLR M02/M04 A3035 RMK AO2 SLP278
         T10171039
         
***** Today's Observations (Above) *****


Back to Main Page
http://www.srh.noaa.gov/lzk/qfcst.php

USA.gov is the U.S. government's official web portal to all federal, state and local government web resources and services.